createdAt,value
2019-02-20T00:02:12.518Z,37.60
2019-02-20T00:04:41.141Z,37.60
2019-02-20T00:07:12.039Z,37.60
2019-02-20T00:09:42.232Z,37.60
2019-02-20T00:12:10.808Z,37.60
2019-02-20T00:14:39.402Z,37.50
2019-02-20T00:20:36.583Z,37.40
2019-02-20T00:23:05.155Z,37.40
2019-02-20T00:25:33.639Z,37.40
2019-02-20T00:28:02.188Z,37.50
2019-02-20T00:30:30.760Z,37.40
2019-02-20T00:32:59.234Z,37.40
2019-02-20T00:35:27.797Z,37.50
2019-02-20T00:37:56.328Z,37.40
2019-02-20T00:40:24.883Z,37.40
2019-02-20T00:42:53.490Z,37.40
2019-02-20T00:45:32.213Z,37.40
2019-02-20T00:48:02.669Z,37.40
2019-02-20T00:50:33.831Z,37.40
2019-02-20T00:53:04.039Z,37.50
2019-02-20T00:55:32.594Z,37.50
2019-02-20T00:58:01.173Z,37.50
2019-02-20T01:00:29.994Z,37.50
2019-02-20T01:02:58.541Z,37.60
2019-02-20T01:05:27.076Z,37.60
2019-02-20T01:07:55.649Z,37.60
2019-02-20T01:10:24.239Z,37.60
2019-02-20T01:12:52.819Z,37.50
2019-02-20T01:15:21.363Z,37.50
2019-02-20T01:17:49.869Z,37.50
2019-02-20T01:20:18.404Z,37.50
2019-02-20T01:22:47.209Z,37.50
2019-02-20T01:25:15.695Z,37.50
2019-02-20T01:27:45.308Z,37.50
2019-02-20T01:30:15.022Z,37.50
2019-02-20T01:32:43.504Z,37.40
2019-02-20T01:35:12.286Z,37.30
2019-02-20T01:37:40.824Z,37.40
2019-02-20T01:40:09.515Z,37.30
2019-02-20T01:42:38.058Z,37.70
2019-02-20T01:45:07.976Z,37.30
2019-02-20T01:47:36.462Z,37.30
2019-02-20T01:50:06.380Z,37.30
2019-02-20T01:52:34.936Z,37.30
2019-02-20T01:55:03.985Z,37.30
2019-02-20T01:57:32.584Z,37.30
2019-02-20T02:00:01.059Z,37.30
2019-02-20T02:02:29.537Z,37.20
2019-02-20T02:04:58.112Z,37.20
2019-02-20T02:07:26.646Z,37.20
2019-02-20T02:09:55.154Z,37.20
2019-02-20T02:12:23.721Z,37.20
2019-02-20T02:14:52.274Z,37.20
2019-02-20T02:17:20.829Z,37.30
2019-02-20T02:19:49.390Z,37.20
2019-02-20T02:22:17.997Z,37.10
2019-02-20T02:24:46.493Z,37.10
2019-02-20T02:27:14.970Z,37.10
2019-02-20T02:29:43.455Z,37.10
2019-02-20T02:32:12.015Z,37.00
2019-02-20T02:34:40.555Z,37.00
2019-02-20T02:37:09.054Z,37.00
2019-02-20T02:39:37.598Z,37.00
2019-02-20T02:42:06.236Z,37.00
2019-02-20T02:44:34.800Z,37.00
2019-02-20T02:47:03.377Z,37.00
2019-02-20T02:49:31.939Z,37.00
2019-02-20T02:52:00.501Z,37.10
2019-02-20T02:54:29.042Z,37.10
2019-02-20T02:56:57.523Z,37.10
2019-02-20T02:59:25.985Z,37.00
2019-02-20T03:01:54.570Z,37.00
2019-02-20T03:04:23.195Z,37.00
2019-02-20T03:06:51.769Z,37.00
2019-02-20T03:09:22.758Z,37.00
2019-02-20T03:11:51.258Z,37.00
2019-02-20T03:14:19.830Z,37.00
2019-02-20T03:16:48.406Z,37.00
2019-02-20T03:19:16.955Z,37.00
2019-02-20T03:21:45.444Z,37.10
2019-02-20T03:24:14.005Z,37.00
2019-02-20T03:26:42.571Z,37.00
2019-02-20T03:29:11.058Z,36.90
2019-02-20T03:31:39.616Z,37.00
2019-02-20T03:34:09.094Z,37.00
2019-02-20T03:36:37.632Z,37.00
2019-02-20T03:39:06.653Z,37.10
2019-02-20T03:41:36.382Z,37.10
2019-02-20T03:44:04.940Z,37.10
2019-02-20T03:46:33.518Z,37.10
2019-02-20T03:49:02.085Z,37.10
2019-02-20T03:51:30.627Z,37.10
2019-02-20T03:53:59.280Z,37.10
2019-02-20T03:56:27.890Z,37.10
2019-02-20T03:58:56.430Z,37.10
2019-02-20T04:01:25.039Z,37.50
2019-02-20T04:03:53.601Z,37.10
2019-02-20T04:06:22.060Z,37.10
2019-02-20T04:08:50.615Z,37.10
2019-02-20T04:11:19.109Z,37.00
2019-02-20T04:13:47.643Z,37.00
2019-02-20T04:16:16.200Z,37.00
2019-02-20T04:18:44.741Z,37.10
2019-02-20T04:21:13.305Z,37.10
2019-02-20T04:23:41.855Z,37.10
2019-02-20T04:26:10.438Z,37.00
2019-02-20T04:28:39.006Z,36.90
2019-02-20T04:31:07.550Z,37.00
2019-02-20T04:33:36.129Z,37.00
2019-02-20T04:36:04.682Z,37.00
2019-02-20T04:38:33.234Z,37.00
2019-02-20T04:41:01.721Z,37.10
2019-02-20T04:43:30.286Z,37.10
2019-02-20T04:45:58.844Z,37.10
2019-02-20T04:48:27.383Z,37.10
2019-02-20T04:50:55.857Z,37.10
2019-02-20T04:53:24.402Z,37.20
2019-02-20T04:55:52.874Z,37.20
2019-02-20T04:58:22.670Z,37.20
2019-02-20T05:00:51.481Z,37.20
2019-02-20T05:03:20.042Z,37.20
2019-02-20T05:05:48.591Z,37.20
2019-02-20T05:08:17.065Z,37.30
2019-02-20T05:10:45.623Z,37.30
2019-02-20T05:13:14.231Z,37.30
2019-02-20T05:15:42.817Z,37.40
2019-02-20T05:18:11.349Z,37.50
2019-02-20T05:20:39.929Z,37.50
2019-02-20T05:23:08.547Z,37.60
2019-02-20T05:25:37.102Z,37.60
2019-02-20T05:28:05.583Z,37.60
2019-02-20T05:30:34.239Z,37.70
2019-02-20T05:33:02.779Z,37.80
2019-02-20T05:35:31.322Z,37.80
2019-02-20T05:37:59.818Z,37.90
2019-02-20T05:40:28.286Z,38.00
2019-02-20T05:42:56.866Z,38.00
2019-02-20T05:45:25.501Z,38.10
2019-02-20T05:47:54.087Z,38.20
2019-02-20T05:50:22.639Z,38.20
2019-02-20T05:52:51.151Z,38.40
2019-02-20T05:55:19.697Z,38.20
2019-02-20T05:57:48.302Z,38.40
2019-02-20T06:00:16.860Z,38.40
2019-02-20T06:02:45.420Z,38.40
2019-02-20T06:05:13.982Z,38.50
2019-02-20T06:07:42.547Z,38.60
2019-02-20T06:10:11.239Z,38.60
2019-02-20T06:12:39.836Z,38.60
2019-02-20T06:15:10.035Z,38.60
2019-02-20T06:17:38.602Z,38.70
2019-02-20T06:20:09.611Z,38.70
2019-02-20T06:22:38.202Z,38.80
2019-02-20T06:25:06.909Z,38.80
2019-02-20T06:27:35.405Z,38.80
2019-02-20T06:30:06.201Z,39.00
2019-02-20T06:32:34.774Z,38.90
2019-02-20T06:35:03.428Z,39.30
2019-02-20T06:37:31.980Z,38.90
2019-02-20T06:40:00.544Z,38.90
2019-02-20T06:42:29.023Z,38.90
2019-02-20T06:44:57.847Z,38.90
2019-02-20T06:47:26.342Z,38.90
2019-02-20T06:49:55.859Z,39.00
2019-02-20T06:52:24.408Z,39.10
2019-02-20T06:54:54.150Z,39.20
2019-02-20T06:57:22.868Z,39.20
2019-02-20T06:59:51.416Z,39.20
2019-02-20T07:02:19.977Z,39.20
2019-02-20T07:05:24.461Z,39.30
2019-02-20T07:08:12.693Z,39.30
2019-02-20T07:10:50.083Z,39.30
2019-02-20T07:13:20.464Z,39.40
2019-02-20T07:15:52.107Z,39.50
2019-02-20T07:18:29.800Z,39.50
2019-02-20T07:21:17.880Z,39.40
2019-02-20T07:24:07.373Z,39.40
2019-02-20T07:26:44.685Z,39.40
2019-02-20T07:29:32.523Z,39.50
2019-02-20T07:32:01.109Z,39.60
2019-02-20T07:34:29.655Z,39.70
2019-02-20T07:36:58.225Z,39.80
2019-02-20T07:39:26.865Z,39.90
2019-02-20T07:41:55.394Z,40.10
2019-02-20T07:44:23.945Z,40.10
2019-02-20T07:46:52.527Z,40.20
2019-02-20T07:49:21.084Z,40.20
2019-02-20T07:51:49.578Z,40.20
2019-02-20T07:54:18.178Z,40.30
2019-02-20T07:56:46.729Z,40.40
2019-02-20T07:59:15.295Z,40.40
2019-02-20T08:01:44.400Z,40.50
2019-02-20T08:04:12.919Z,40.70
2019-02-20T08:06:41.468Z,40.70
2019-02-20T08:09:10.016Z,40.80
2019-02-20T08:11:38.575Z,40.90
2019-02-20T08:14:07.142Z,41.00
2019-02-20T08:16:35.708Z,41.00
2019-02-20T08:19:04.274Z,41.00
2019-02-20T08:21:32.850Z,41.10
2019-02-20T08:24:01.406Z,41.10
2019-02-20T08:26:29.999Z,41.20
2019-02-20T08:28:58.577Z,41.20
2019-02-20T08:31:27.157Z,41.20
2019-02-20T08:33:55.689Z,41.30
2019-02-20T08:36:24.256Z,41.10
2019-02-20T08:38:52.817Z,40.90
2019-02-20T08:41:21.383Z,40.90
2019-02-20T08:43:50.846Z,40.80
2019-02-20T08:46:19.327Z,40.80
2019-02-20T08:48:47.911Z,40.70
2019-02-20T08:51:16.479Z,40.70
2019-02-20T08:53:45.034Z,40.60
2019-02-20T08:56:13.511Z,40.50
2019-02-20T08:58:42.066Z,40.60
2019-02-20T09:01:10.567Z,40.60
2019-02-20T09:03:39.123Z,40.70
2019-02-20T09:06:07.681Z,40.70
2019-02-20T09:08:36.316Z,40.80
2019-02-20T09:11:04.947Z,40.80
2019-02-20T09:13:33.513Z,40.80
2019-02-20T09:16:02.059Z,41.00
2019-02-20T09:18:30.613Z,41.00
2019-02-20T09:20:59.188Z,41.00
2019-02-20T09:23:27.752Z,40.80
2019-02-20T09:25:56.292Z,40.70
2019-02-20T09:28:24.763Z,40.70
2019-02-20T09:30:53.335Z,40.80
2019-02-20T09:33:21.898Z,40.80
2019-02-20T09:35:50.460Z,40.90
2019-02-20T09:38:19.011Z,40.10
2019-02-20T09:40:47.501Z,40.10
2019-02-20T09:43:16.067Z,39.90
2019-02-20T09:45:44.673Z,39.90
2019-02-20T09:48:13.224Z,39.90
2019-02-20T09:50:41.774Z,39.80
2019-02-20T09:53:10.272Z,39.80
2019-02-20T09:55:38.878Z,39.90
2019-02-20T09:58:07.470Z,40.00
2019-02-20T10:00:35.994Z,40.00
2019-02-20T10:03:04.525Z,40.00
2019-02-20T10:05:33.010Z,39.90
2019-02-20T10:08:01.612Z,40.00
2019-02-20T10:10:30.143Z,40.00
2019-02-20T10:12:58.660Z,40.10
2019-02-20T10:15:27.197Z,40.10
2019-02-20T10:17:55.692Z,40.00
2019-02-20T10:20:24.232Z,39.90
2019-02-20T10:22:52.734Z,40.00
2019-02-20T10:25:21.296Z,40.00
2019-02-20T10:27:50.462Z,40.10
2019-02-20T10:30:19.858Z,40.10
2019-02-20T10:32:48.496Z,40.00
2019-02-20T10:35:17.128Z,40.00
2019-02-20T10:37:45.706Z,40.00
2019-02-20T10:40:14.312Z,40.10
2019-02-20T10:42:43.788Z,40.20
2019-02-20T10:45:13.274Z,40.00
2019-02-20T10:47:41.988Z,40.00
2019-02-20T10:50:11.912Z,39.90
2019-02-20T10:52:40.465Z,39.70
2019-02-20T10:55:09.880Z,39.70
2019-02-20T10:57:38.581Z,39.60
2019-02-20T11:00:23.603Z,39.60
2019-02-20T11:02:44.641Z,39.40
2019-02-20T11:05:13.226Z,39.40
2019-02-20T11:07:41.853Z,39.40
2019-02-20T11:10:10.523Z,39.40
2019-02-20T11:12:39.085Z,39.40
2019-02-20T11:15:08.580Z,39.40
2019-02-20T11:17:37.503Z,39.30
2019-02-20T11:20:10.759Z,39.30
2019-02-20T11:22:39.225Z,39.20
2019-02-20T11:25:10.281Z,39.20
2019-02-20T11:27:39.560Z,39.00
2019-02-20T11:30:22.281Z,38.90
2019-02-20T11:32:50.741Z,38.80
2019-02-20T11:35:19.855Z,38.60
2019-02-20T11:37:48.350Z,38.60
2019-02-20T11:40:17.050Z,38.40
2019-02-20T11:42:45.545Z,38.20
2019-02-20T11:45:17.466Z,38.20
2019-02-20T11:47:47.556Z,38.10
2019-02-20T11:50:16.115Z,37.90
2019-02-20T11:52:44.664Z,37.90
2019-02-20T11:55:14.485Z,37.80
2019-02-20T11:57:43.120Z,37.60
2019-02-20T12:00:13.511Z,37.70
2019-02-20T12:02:42.294Z,37.90
2019-02-20T12:05:11.082Z,38.20
2019-02-20T12:07:42.817Z,37.80
2019-02-20T12:10:13.673Z,37.80
2019-02-20T12:12:42.312Z,37.70
2019-02-20T12:15:10.875Z,37.70
2019-02-20T12:17:39.436Z,37.60
2019-02-20T12:20:08.567Z,37.50
2019-02-20T12:22:37.119Z,37.60
2019-02-20T12:25:07.965Z,37.40
2019-02-20T12:27:36.601Z,37.40
2019-02-20T12:30:10.260Z,37.30
2019-02-20T12:32:38.991Z,37.20
2019-02-20T12:35:08.897Z,37.10
2019-02-20T12:37:37.469Z,36.80
2019-02-20T12:40:07.857Z,36.60
2019-02-20T12:42:36.388Z,36.60
2019-02-20T12:45:13.797Z,36.50
2019-02-20T12:47:42.461Z,36.50
2019-02-20T12:50:15.084Z,36.60
2019-02-20T12:52:43.655Z,36.60
2019-02-20T12:55:12.213Z,36.60
2019-02-20T12:57:40.877Z,36.60
2019-02-20T13:00:15.582Z,36.60
2019-02-20T13:02:45.109Z,36.50
2019-02-20T13:05:13.827Z,36.50
2019-02-20T13:07:42.372Z,36.40
2019-02-20T13:10:11.088Z,36.50
2019-02-20T13:12:39.639Z,36.40
2019-02-20T13:15:09.943Z,36.40
2019-02-20T13:17:38.490Z,36.20
2019-02-20T13:20:09.278Z,36.10
2019-02-20T13:22:38.065Z,35.90
2019-02-20T13:25:08.065Z,36.00
2019-02-20T13:27:36.545Z,35.90
2019-02-20T13:30:08.340Z,35.60
2019-02-20T13:32:36.813Z,35.50
2019-02-20T13:35:06.718Z,35.30
2019-02-20T13:37:35.343Z,35.30
2019-02-20T13:40:04.185Z,35.20
2019-02-20T13:42:32.751Z,35.10
2019-02-20T13:45:01.349Z,35.10
2019-02-20T13:47:29.909Z,35.00
2019-02-20T13:49:58.466Z,35.10
2019-02-20T13:52:27.611Z,35.10
2019-02-20T13:54:56.163Z,35.20
2019-02-20T13:57:24.900Z,35.20
2019-02-20T13:59:53.419Z,35.30
2019-02-20T14:02:22.166Z,35.20
2019-02-20T14:04:50.858Z,35.10
2019-02-20T14:07:19.445Z,35.10
2019-02-20T14:09:48.967Z,34.90
2019-02-20T14:12:17.868Z,34.80
2019-02-20T14:14:46.430Z,34.70
2019-02-20T14:17:14.996Z,34.70
2019-02-20T14:19:43.560Z,34.60
2019-02-20T14:22:12.164Z,34.70
2019-02-20T14:24:40.785Z,34.80
2019-02-20T14:27:11.114Z,34.90
2019-02-20T14:29:39.595Z,34.80
2019-02-20T14:32:08.156Z,34.90
2019-02-20T14:34:36.759Z,34.70
2019-02-20T14:37:05.417Z,34.50
2019-02-20T14:39:34.095Z,33.30
2019-02-20T14:42:02.630Z,32.70
2019-02-20T14:44:31.508Z,32.50
2019-02-20T14:47:00.052Z,32.30
2019-02-20T14:49:28.692Z,32.30
2019-02-20T14:51:57.260Z,32.10
2019-02-20T14:54:25.845Z,32.30
2019-02-20T14:56:54.392Z,32.50
2019-02-20T14:59:22.949Z,32.60
2019-02-20T15:01:51.852Z,32.70
2019-02-20T15:04:20.431Z,32.90
2019-02-20T15:06:49.230Z,32.80
2019-02-20T15:09:17.807Z,32.90
2019-02-20T15:11:46.404Z,33.10
2019-02-20T15:14:16.153Z,33.10
2019-02-20T15:16:44.915Z,32.80
2019-02-20T15:19:13.487Z,32.80
2019-02-20T15:21:42.136Z,32.90
2019-02-20T15:24:10.670Z,32.90
2019-02-20T15:26:39.221Z,33.40
2019-02-20T15:29:07.780Z,32.70
2019-02-20T15:31:36.338Z,32.90
2019-02-20T15:34:05.187Z,32.90
2019-02-20T15:36:33.790Z,32.70
2019-02-20T15:39:02.416Z,32.70
2019-02-20T15:41:30.998Z,32.80
2019-02-20T15:43:59.576Z,32.80
2019-02-20T15:46:28.168Z,32.90
2019-02-20T15:48:57.998Z,32.90
2019-02-20T15:51:26.658Z,33.00
2019-02-20T15:53:55.288Z,33.00
2019-02-20T15:56:25.106Z,33.10
2019-02-20T15:58:53.695Z,33.10
2019-02-20T16:01:22.239Z,33.00
2019-02-20T16:03:50.949Z,33.20
2019-02-20T16:06:19.486Z,33.30
2019-02-20T16:08:49.922Z,33.30
2019-02-20T16:11:18.505Z,33.30
2019-02-20T16:13:47.067Z,33.40
2019-02-20T16:16:15.609Z,33.40
2019-02-20T16:18:44.219Z,33.50
2019-02-20T16:21:12.883Z,33.50
2019-02-20T16:23:41.736Z,33.60
2019-02-20T16:26:10.323Z,33.70
2019-02-20T16:28:38.875Z,33.70
2019-02-20T16:31:07.455Z,33.70
2019-02-20T16:33:36.004Z,33.70
2019-02-20T16:36:04.607Z,33.70
2019-02-20T16:38:33.215Z,33.60
2019-02-20T16:41:01.783Z,33.70
2019-02-20T16:43:30.363Z,33.70
2019-02-20T16:45:59.108Z,33.80
2019-02-20T16:48:27.672Z,33.80
2019-02-20T16:50:56.384Z,33.80
2019-02-20T16:53:24.964Z,33.80
2019-02-20T16:55:53.523Z,33.80
2019-02-20T16:58:22.154Z,33.80
2019-02-20T17:00:50.857Z,33.80
2019-02-20T17:10:15.591Z,34.00
2019-02-20T17:12:44.258Z,34.10
2019-02-20T17:15:16.630Z,34.10
2019-02-20T17:17:45.232Z,34.10
2019-02-20T17:20:17.580Z,34.20
2019-02-20T17:22:46.624Z,34.20
2019-02-20T17:25:15.405Z,34.30
2019-02-20T17:27:44.078Z,34.30
2019-02-20T17:30:15.701Z,34.30
2019-02-20T17:32:44.628Z,34.30
2019-02-20T17:35:13.757Z,34.30
2019-02-20T17:37:42.284Z,34.30
2019-02-20T17:40:11.873Z,34.30
2019-02-20T17:42:40.405Z,34.40
2019-02-20T17:45:11.904Z,34.40
2019-02-20T17:47:40.437Z,34.40
2019-02-20T17:50:11.739Z,34.40
2019-02-20T17:52:40.336Z,34.50
2019-02-20T17:55:09.949Z,34.50
2019-02-20T17:57:38.405Z,34.50
2019-02-20T18:00:19.054Z,34.60
2019-02-20T18:02:47.586Z,34.60
2019-02-20T18:05:16.200Z,34.60
2019-02-20T18:07:49.756Z,34.60
2019-02-20T18:10:15.093Z,34.70
2019-02-20T18:12:43.579Z,34.70
2019-02-20T18:15:13.498Z,34.70
2019-02-20T18:17:42.109Z,34.70
2019-02-20T18:20:11.312Z,34.80
2019-02-20T18:22:39.948Z,34.80
2019-02-20T18:25:10.084Z,34.80
2019-02-20T18:27:38.650Z,34.80
2019-02-20T18:30:10.283Z,34.90
2019-02-20T18:32:38.764Z,34.90
2019-02-20T18:35:10.030Z,34.90
2019-02-20T18:37:38.493Z,35.00
2019-02-20T18:40:09.994Z,34.90
2019-02-20T18:42:38.488Z,35.00
2019-02-20T18:45:09.951Z,35.00
2019-02-20T18:47:38.594Z,35.00
2019-02-20T18:50:10.356Z,35.10
2019-02-20T18:52:38.983Z,35.10
2019-02-20T18:55:09.926Z,35.10
2019-02-20T18:57:38.385Z,35.10
2019-02-20T19:00:15.904Z,35.20
2019-02-20T19:02:44.507Z,35.20
2019-02-20T19:05:13.231Z,35.20
2019-02-20T19:07:41.696Z,35.20
2019-02-20T19:10:16.327Z,35.30
2019-02-20T19:12:50.711Z,35.30
2019-02-20T19:15:25.091Z,35.30
2019-02-20T19:18:02.185Z,35.40
2019-02-20T19:20:36.338Z,35.40
2019-02-20T19:23:22.972Z,35.40
2019-02-20T19:26:00.645Z,35.40
2019-02-20T19:28:54.790Z,35.50
2019-02-20T19:31:54.634Z,35.50
2019-02-20T19:34:40.054Z,35.50
2019-02-20T19:37:32.321Z,35.50
2019-02-20T19:40:29.392Z,35.60
2019-02-20T19:43:27.465Z,35.60
2019-02-20T19:46:06.644Z,35.60
2019-02-20T19:48:49.911Z,35.50
2019-02-20T19:51:24.371Z,35.60
2019-02-20T19:54:01.725Z,35.60
2019-02-20T19:56:33.268Z,35.70
2019-02-20T19:59:10.654Z,35.70
2019-02-20T20:01:58.763Z,35.70
2019-02-20T20:04:30.278Z,35.70
2019-02-20T20:07:16.916Z,35.80
2019-02-20T20:09:57.141Z,35.80
2019-02-20T20:12:49.667Z,35.80
2019-02-20T20:15:24.148Z,35.70
2019-02-20T20:18:27.257Z,35.70
2019-02-20T20:21:04.600Z,35.80
2019-02-20T20:23:45.842Z,35.70
2019-02-20T20:26:17.425Z,35.80
2019-02-20T20:29:09.978Z,35.90
2019-02-20T20:31:44.259Z,35.90
2019-02-20T20:34:18.847Z,35.90
2019-02-20T20:36:53.280Z,35.90
2019-02-20T20:39:30.699Z,35.90
2019-02-20T20:42:05.137Z,35.90
2019-02-20T20:44:51.436Z,36.00
2019-02-20T20:47:39.486Z,35.90
2019-02-20T20:50:14.076Z,36.00
2019-02-20T20:52:51.613Z,36.00
2019-02-20T20:55:39.345Z,36.00
2019-02-20T20:58:31.637Z,36.00
2019-02-20T21:01:08.950Z,36.00
2019-02-20T21:03:44.944Z,36.00
2019-02-20T21:06:35.993Z,36.10
2019-02-20T21:09:07.807Z,36.10
2019-02-20T21:11:48.067Z,36.20
2019-02-20T21:14:31.286Z,36.30
2019-02-20T21:17:05.587Z,36.30
2019-02-20T21:19:42.718Z,36.30
2019-02-20T21:22:20.293Z,36.30
2019-02-20T21:25:26.355Z,36.30
2019-02-20T21:28:03.821Z,36.30
2019-02-20T21:30:35.367Z,36.30
2019-02-20T21:33:24.820Z,36.30
2019-02-20T21:35:58.892Z,36.30
2019-02-20T21:38:42.251Z,36.30
2019-02-20T21:41:13.786Z,36.30
2019-02-20T21:44:18.159Z,36.30
2019-02-20T21:47:22.541Z,36.30
2019-02-20T21:50:22.398Z,36.30
2019-02-20T21:52:59.439Z,36.30
2019-02-20T21:56:00.829Z,36.30
2019-02-20T21:58:38.322Z,36.30
2019-02-20T22:01:30.501Z,36.30
2019-02-20T22:04:16.725Z,36.40
2019-02-20T22:07:03.466Z,36.40
2019-02-20T22:09:37.794Z,36.50
2019-02-20T22:12:15.274Z,36.50
2019-02-20T22:15:01.184Z,36.50
2019-02-20T22:17:41.798Z,36.40
2019-02-20T22:20:29.581Z,36.40
2019-02-20T22:23:07.005Z,36.50
2019-02-20T22:26:11.673Z,36.50
2019-02-20T22:28:54.908Z,36.40
2019-02-20T22:31:43.697Z,36.40
2019-02-20T22:34:23.940Z,36.50
2019-02-20T22:37:15.929Z,36.50
2019-02-20T22:40:04.858Z,36.50
2019-02-20T22:42:45.301Z,36.50
2019-02-20T22:45:33.657Z,36.50
2019-02-20T22:48:23.667Z,36.50
2019-02-20T22:51:07.197Z,36.50
2019-02-20T22:54:09.984Z,36.50
2019-02-20T22:56:59.213Z,36.60
2019-02-20T22:59:42.434Z,36.60
2019-02-20T23:02:28.605Z,36.60
2019-02-20T23:05:00.216Z,36.60
2019-02-20T23:07:31.799Z,36.60
2019-02-20T23:10:25.586Z,36.70
2019-02-20T23:13:00.045Z,36.70
2019-02-20T23:15:28.583Z,36.60
2019-02-20T23:17:57.075Z,36.70
2019-02-20T23:20:25.560Z,36.70
2019-02-20T23:22:54.016Z,36.70
2019-02-20T23:25:22.500Z,36.70
2019-02-20T23:27:50.966Z,36.70
2019-02-20T23:30:19.442Z,36.70
2019-02-20T23:32:47.905Z,36.80
2019-02-20T23:35:16.420Z,36.70
2019-02-20T23:37:44.935Z,36.80
2019-02-20T23:40:13.489Z,36.70
2019-02-20T23:42:41.943Z,36.70
2019-02-20T23:45:10.561Z,36.80
2019-02-20T23:47:39.101Z,36.80
2019-02-20T23:50:08.326Z,36.80
2019-02-20T23:52:36.853Z,36.70
2019-02-20T23:55:06.686Z,36.80
2019-02-20T23:57:35.281Z,36.80
